createdAt,value
2023-01-06T00:02:43.168Z,13.00
2023-01-06T00:05:45.333Z,12.98
2023-01-06T00:08:47.557Z,12.99
2023-01-06T00:11:49.715Z,12.99
2023-01-06T00:14:52.219Z,13.00
2023-01-06T00:17:54.409Z,12.99
2023-01-06T00:20:59.181Z,12.99
2023-01-06T00:24:01.362Z,13.01
2023-01-06T00:27:03.551Z,13.00
2023-01-06T00:30:07.194Z,12.99
2023-01-06T00:33:09.492Z,12.99
2023-01-06T00:36:13.711Z,12.99
2023-01-06T00:39:16.757Z,12.99
2023-01-06T00:42:18.984Z,13.00
2023-01-06T00:45:21.203Z,12.99
2023-01-06T00:48:23.462Z,13.00
2023-01-06T00:51:25.698Z,12.97
2023-01-06T00:54:27.886Z,12.98
2023-01-06T00:57:30.116Z,13.00
2023-01-06T01:00:32.337Z,12.99
2023-01-06T01:03:36.025Z,13.00
2023-01-06T01:06:38.543Z,13.00
2023-01-06T01:09:40.688Z,12.98
2023-01-06T01:12:42.851Z,13.00
2023-01-06T01:15:45.023Z,12.98
2023-01-06T01:18:47.228Z,13.00
2023-01-06T01:21:49.542Z,13.00
2023-01-06T01:24:52.683Z,12.99
2023-01-06T01:27:54.830Z,12.99
2023-01-06T01:31:03.689Z,12.99
2023-01-06T01:34:05.979Z,12.95
2023-01-06T01:37:08.443Z,12.98
2023-01-06T01:40:11.114Z,13.00
2023-01-06T01:43:13.418Z,12.98
2023-01-06T01:46:40.907Z,12.99
2023-01-06T01:49:44.939Z,12.99
2023-01-06T01:52:50.255Z,12.97
2023-01-06T01:55:54.287Z,12.98
2023-01-06T01:59:08.826Z,12.97
2023-01-06T02:02:11.741Z,12.97
2023-01-06T02:05:16.480Z,12.97
2023-01-06T02:08:25.566Z,12.97
2023-01-06T02:11:29.591Z,12.94
2023-01-06T02:14:31.909Z,12.93
2023-01-06T02:17:47.660Z,12.90
2023-01-06T02:21:03.037Z,12.94
2023-01-06T02:24:20.859Z,12.95
2023-01-06T02:27:59.239Z,12.95
2023-01-06T02:31:13.475Z,12.95
2023-01-06T02:34:25.035Z,12.94
2023-01-06T02:37:48.419Z,12.94
2023-01-06T02:41:10.525Z,12.94
2023-01-06T02:44:49.813Z,12.94
2023-01-06T02:48:18.569Z,12.93
2023-01-06T02:51:54.880Z,12.90
2023-01-06T02:55:07.784Z,12.89
2023-01-06T02:58:18.016Z,12.90
2023-01-06T03:01:25.388Z,12.91
2023-01-06T03:04:31.941Z,12.90
2023-01-06T03:07:36.141Z,12.88
2023-01-06T03:10:39.837Z,12.91
2023-01-06T03:13:49.622Z,12.92
2023-01-06T03:16:53.644Z,12.89
2023-01-06T03:19:56.017Z,12.88
2023-01-06T03:22:58.407Z,12.91
2023-01-06T03:26:02.029Z,12.90
2023-01-06T03:29:07.629Z,12.89
2023-01-06T03:32:32.656Z,12.90
2023-01-06T03:35:59.231Z,12.90
2023-01-06T03:39:11.085Z,12.90
2023-01-06T03:42:54.218Z,12.90
2023-01-06T03:46:30.307Z,12.91
2023-01-06T03:49:39.420Z,12.89
2023-01-06T03:52:56.373Z,12.90
2023-01-06T03:56:09.532Z,12.90
2023-01-06T03:59:16.930Z,12.87
2023-01-06T04:02:20.070Z,12.88
2023-01-06T04:05:27.408Z,12.87
2023-01-06T04:08:29.909Z,12.88
2023-01-06T04:11:51.131Z,12.87
2023-01-06T04:14:53.687Z,12.89
2023-01-06T04:17:56.063Z,12.87
2023-01-06T04:20:59.464Z,12.89
2023-01-06T04:24:04.913Z,12.90
2023-01-06T04:27:08.562Z,12.88
2023-01-06T04:30:11.563Z,12.84
2023-01-06T04:33:13.835Z,12.85
2023-01-06T04:36:20.304Z,12.82
2023-01-06T04:39:25.753Z,12.84
2023-01-06T04:42:27.897Z,12.85
2023-01-06T04:45:30.096Z,12.80
2023-01-06T04:48:32.319Z,12.85
2023-01-06T04:51:34.493Z,12.86
2023-01-06T04:54:36.684Z,12.84
2023-01-06T04:57:38.929Z,12.87
2023-01-06T05:00:41.244Z,12.88
2023-01-06T05:03:43.440Z,12.88
2023-01-06T05:06:45.636Z,12.87
2023-01-06T05:09:47.810Z,12.86
2023-01-06T05:12:49.992Z,12.87
2023-01-06T05:15:52.283Z,12.82
2023-01-06T05:18:55.462Z,12.84
2023-01-06T05:21:57.625Z,12.85
2023-01-06T05:24:59.726Z,12.80
2023-01-06T05:28:01.856Z,12.82
2023-01-06T05:31:05.380Z,12.82
2023-01-06T05:34:07.617Z,12.82
2023-01-06T05:37:09.733Z,12.84
2023-01-06T05:40:11.964Z,12.76
2023-01-06T05:43:14.054Z,12.85
2023-01-06T05:46:16.251Z,12.86
2023-01-06T05:49:18.346Z,12.85
2023-01-06T05:52:20.437Z,12.86
2023-01-06T05:55:22.585Z,12.86
2023-01-06T05:58:24.712Z,12.86
2023-01-06T06:01:29.285Z,12.87
2023-01-06T06:04:31.434Z,12.86
2023-01-06T06:07:33.681Z,12.86
2023-01-06T06:10:35.880Z,12.86
2023-01-06T06:13:39.114Z,12.86
2023-01-06T06:16:41.310Z,12.87
2023-01-06T06:19:43.505Z,12.87
2023-01-06T06:22:45.652Z,12.86
2023-01-06T06:25:50.213Z,12.84
2023-01-06T06:28:52.588Z,12.87
2023-01-06T06:31:54.795Z,12.87
2023-01-06T06:34:57.204Z,12.88
2023-01-06T06:37:59.334Z,12.85
2023-01-06T06:41:01.508Z,12.88
2023-01-06T06:44:04.023Z,12.89
2023-01-06T06:47:06.260Z,12.87
2023-01-06T06:50:10.737Z,12.88
2023-01-06T06:53:12.859Z,12.90
2023-01-06T06:56:16.283Z,12.90
2023-01-06T06:59:18.382Z,12.90
2023-01-06T07:02:20.631Z,12.86
2023-01-06T07:05:25.552Z,12.90
2023-01-06T07:08:27.766Z,12.91
2023-01-06T07:11:30.004Z,12.92
2023-01-06T07:14:32.171Z,12.93
2023-01-06T07:17:34.458Z,12.92
2023-01-06T07:20:37.502Z,12.93
2023-01-06T07:23:39.619Z,12.94
2023-01-06T07:26:41.821Z,12.94
2023-01-06T07:29:44.102Z,12.96
2023-01-06T07:32:46.304Z,12.96
2023-01-06T07:35:52.778Z,12.96
2023-01-06T07:38:54.919Z,13.00
2023-01-06T07:41:57.081Z,13.00
2023-01-06T07:44:59.204Z,13.01
2023-01-06T07:48:01.641Z,13.02
2023-01-06T07:51:04.035Z,13.03
2023-01-06T07:54:06.544Z,13.00
2023-01-06T07:57:08.751Z,13.08
2023-01-06T08:00:11.475Z,13.10
2023-01-06T08:03:16.599Z,13.12
2023-01-06T08:06:18.785Z,13.16
2023-01-06T08:09:20.954Z,13.18
2023-01-06T08:12:23.070Z,13.20
2023-01-06T08:15:25.675Z,13.19
2023-01-06T08:18:28.904Z,13.21
2023-01-06T08:21:31.077Z,13.25
2023-01-06T08:24:33.266Z,13.25
2023-01-06T08:27:35.800Z,13.26
2023-01-06T08:30:40.086Z,13.27
2023-01-06T08:33:42.756Z,13.28
2023-01-06T08:36:45.318Z,13.29
2023-01-06T08:39:47.638Z,13.30
2023-01-06T08:42:49.790Z,13.31
2023-01-06T08:45:52.195Z,13.32
2023-01-06T08:48:55.869Z,13.32
2023-01-06T08:51:58.022Z,13.31
2023-01-06T08:55:00.297Z,13.30
2023-01-06T08:58:02.414Z,13.30
2023-01-06T09:01:04.696Z,13.30
2023-01-06T09:04:08.314Z,13.31
2023-01-06T09:07:10.515Z,13.31
2023-01-06T09:10:12.697Z,13.30
2023-01-06T09:13:15.420Z,13.29
2023-01-06T09:16:18.512Z,13.29
2023-01-06T09:19:20.703Z,13.28
2023-01-06T09:22:22.898Z,13.26
2023-01-06T09:25:25.021Z,13.27
2023-01-06T09:28:27.262Z,13.28
2023-01-06T09:31:30.025Z,13.27
2023-01-06T09:34:33.435Z,13.28
2023-01-06T09:37:35.622Z,13.28
2023-01-06T09:40:56.328Z,13.28
2023-01-06T09:43:58.378Z,13.27
2023-01-06T09:47:01.774Z,13.27
2023-01-06T09:50:15.923Z,13.25
2023-01-06T09:53:27.032Z,13.27
2023-01-06T09:56:29.677Z,13.27
2023-01-06T09:59:38.655Z,13.27
2023-01-06T10:02:42.022Z,13.28
2023-01-06T10:06:06.053Z,13.28
2023-01-06T10:09:34.111Z,13.26
2023-01-06T10:12:56.156Z,13.28
2023-01-06T10:16:23.489Z,13.27
2023-01-06T10:19:49.171Z,13.28
2023-01-06T10:23:20.408Z,13.29
2023-01-06T10:26:59.029Z,13.30
2023-01-06T10:30:01.515Z,13.28
2023-01-06T10:33:05.239Z,13.27
2023-01-06T10:36:14.579Z,13.28
2023-01-06T10:39:20.503Z,13.28
2023-01-06T10:43:04.255Z,13.30
2023-01-06T10:46:06.429Z,13.30
2023-01-06T10:49:14.575Z,13.33
2023-01-06T10:52:16.911Z,13.33
2023-01-06T10:55:29.323Z,13.34
2023-01-06T10:58:43.148Z,13.33
2023-01-06T11:01:57.255Z,13.35
2023-01-06T11:05:02.083Z,13.34
2023-01-06T11:08:11.018Z,13.35
2023-01-06T11:11:27.190Z,13.33
2023-01-06T11:14:32.133Z,13.35
2023-01-06T11:17:34.350Z,13.36
2023-01-06T11:20:36.612Z,13.36
2023-01-06T11:23:43.051Z,13.36
2023-01-06T11:26:59.461Z,13.38
2023-01-06T11:30:21.342Z,13.37
2023-01-06T11:33:26.430Z,13.38
2023-01-06T11:36:31.041Z,13.40
2023-01-06T11:39:35.787Z,13.40
2023-01-06T11:42:39.463Z,13.40
2023-01-06T11:45:48.060Z,13.38
2023-01-06T11:49:06.867Z,13.41
2023-01-06T11:52:18.067Z,13.43
2023-01-06T11:55:22.055Z,13.43
2023-01-06T11:58:50.488Z,13.41
2023-01-06T12:01:56.711Z,13.41
2023-01-06T12:05:00.619Z,13.42
2023-01-06T12:08:06.296Z,13.42
2023-01-06T12:11:19.603Z,13.42
2023-01-06T12:14:29.949Z,13.43
2023-01-06T12:17:55.370Z,13.43
2023-01-06T12:20:58.689Z,13.44
2023-01-06T12:24:03.777Z,13.43
2023-01-06T12:27:06.494Z,13.41
2023-01-06T12:30:15.556Z,13.40
2023-01-06T12:33:24.929Z,13.42
2023-01-06T12:36:27.978Z,13.43
2023-01-06T12:39:37.560Z,13.41
2023-01-06T12:43:12.724Z,13.43
2023-01-06T12:46:18.468Z,13.42
2023-01-06T12:49:24.539Z,13.41
2023-01-06T12:52:43.132Z,13.41
2023-01-06T12:56:00.504Z,13.43
2023-01-06T12:59:30.162Z,13.43
2023-01-06T13:02:57.179Z,13.42
2023-01-06T13:06:23.389Z,13.43
2023-01-06T13:09:31.620Z,13.43
2023-01-06T13:12:40.048Z,13.42
2023-01-06T13:15:44.876Z,13.44
2023-01-06T13:18:54.273Z,13.41
2023-01-06T13:21:56.981Z,13.41
2023-01-06T13:25:38.433Z,13.41
2023-01-06T13:28:59.218Z,13.40
2023-01-06T13:32:26.301Z,13.39
2023-01-06T13:35:31.255Z,13.40
2023-01-06T13:38:58.612Z,13.39
2023-01-06T13:42:03.517Z,13.38
2023-01-06T13:45:09.001Z,13.36
2023-01-06T13:48:16.167Z,13.37
2023-01-06T13:51:21.346Z,13.37
2023-01-06T13:54:43.741Z,13.36
2023-01-06T13:57:45.924Z,13.34
2023-01-06T14:01:06.226Z,13.34
2023-01-06T14:04:26.918Z,13.33
2023-01-06T14:07:40.196Z,13.30
2023-01-06T14:10:46.634Z,13.30
2023-01-06T14:13:54.566Z,13.31
2023-01-06T14:16:57.632Z,13.29
2023-01-06T14:19:59.849Z,13.29
2023-01-06T14:23:05.246Z,13.29
2023-01-06T14:26:08.337Z,13.27
2023-01-06T14:29:44.880Z,13.27
2023-01-06T14:32:46.941Z,13.27
2023-01-06T14:35:49.726Z,13.28
2023-01-06T14:38:55.098Z,13.27
2023-01-06T14:42:01.017Z,13.26
2023-01-06T14:45:23.505Z,13.26
2023-01-06T14:48:28.088Z,13.26
2023-01-06T14:51:31.838Z,13.25
2023-01-06T14:54:37.732Z,13.24
2023-01-06T14:57:40.232Z,13.24
2023-01-06T15:00:46.307Z,13.23
2023-01-06T15:03:59.973Z,13.23
2023-01-06T15:07:17.895Z,13.22
2023-01-06T15:10:21.609Z,13.17
2023-01-06T15:13:28.283Z,13.21
2023-01-06T15:16:36.274Z,13.20
2023-01-06T15:19:38.561Z,13.20
2023-01-06T15:22:42.697Z,13.21
2023-01-06T15:25:48.001Z,13.20
2023-01-06T15:29:05.784Z,13.20
2023-01-06T15:32:12.473Z,13.20
2023-01-06T15:35:19.886Z,13.20
2023-01-06T15:38:21.961Z,13.20
2023-01-06T15:41:33.532Z,13.18
2023-01-06T15:44:37.935Z,13.18
2023-01-06T15:47:47.292Z,13.18
2023-01-06T15:50:50.869Z,13.17
2023-01-06T15:53:56.320Z,13.17
2023-01-06T15:57:11.462Z,13.14
2023-01-06T16:00:22.938Z,13.15
2023-01-06T16:03:29.991Z,13.15
2023-01-06T16:06:37.018Z,13.15
2023-01-06T16:09:39.150Z,13.12
2023-01-06T16:12:41.284Z,13.12
2023-01-06T16:15:56.112Z,13.11
2023-01-06T16:18:58.566Z,13.12
2023-01-06T16:22:04.987Z,13.11
2023-01-06T16:25:28.525Z,13.11
2023-01-06T16:28:30.771Z,13.08
2023-01-06T16:31:38.092Z,13.10
2023-01-06T16:34:49.034Z,13.09
2023-01-06T16:37:51.848Z,13.06
2023-01-06T16:40:54.051Z,13.08
2023-01-06T16:43:56.188Z,13.05
2023-01-06T16:46:59.045Z,13.07
2023-01-06T16:50:06.695Z,13.06
2023-01-06T16:53:25.908Z,13.05
2023-01-06T16:56:29.225Z,13.05
2023-01-06T16:59:35.243Z,13.04
2023-01-06T17:02:37.484Z,13.04
2023-01-06T17:05:41.276Z,13.04
2023-01-06T17:08:43.886Z,13.03
2023-01-06T17:11:51.128Z,13.03
2023-01-06T17:14:53.282Z,13.02
2023-01-06T17:17:55.553Z,13.02
2023-01-06T17:21:15.736Z,13.02
2023-01-06T17:24:25.510Z,13.02
2023-01-06T17:27:29.398Z,12.99
2023-01-06T17:30:31.642Z,12.95
2023-01-06T17:33:33.766Z,12.98
2023-01-06T17:36:38.379Z,12.99
2023-01-06T17:39:43.005Z,12.99
2023-01-06T17:42:46.918Z,12.99
2023-01-06T17:45:49.095Z,12.98
2023-01-06T17:49:00.559Z,12.98
2023-01-06T17:52:14.617Z,12.98
2023-01-06T17:55:45.038Z,12.97
2023-01-06T17:58:47.323Z,12.96
2023-01-06T18:01:51.892Z,12.97
2023-01-06T18:04:54.396Z,12.95
2023-01-06T18:08:05.678Z,12.96
2023-01-06T18:11:29.595Z,12.96
2023-01-06T18:14:33.879Z,12.95
2023-01-06T18:17:36.050Z,12.96
2023-01-06T18:20:40.557Z,12.94
2023-01-06T18:23:45.002Z,12.96
2023-01-06T18:27:00.537Z,12.97
2023-01-06T18:30:14.659Z,12.97
2023-01-06T18:33:17.290Z,12.96
2023-01-06T18:36:19.454Z,12.96
2023-01-06T18:39:29.580Z,12.96
2023-01-06T18:42:36.099Z,12.94
2023-01-06T18:45:39.181Z,12.96
2023-01-06T18:48:42.202Z,12.95
2023-01-06T18:51:44.426Z,12.93
2023-01-06T18:54:46.629Z,12.95
2023-01-06T18:58:00.605Z,12.93
2023-01-06T19:01:13.282Z,12.94
2023-01-06T19:04:29.148Z,12.95
2023-01-06T19:07:31.415Z,12.93
2023-01-06T19:10:36.108Z,12.94
2023-01-06T19:13:38.303Z,12.94
2023-01-06T19:16:49.516Z,12.94
2023-01-06T19:19:53.311Z,12.93
2023-01-06T19:22:56.977Z,12.94
2023-01-06T19:26:31.629Z,12.93
2023-01-06T19:29:35.011Z,12.93
2023-01-06T19:32:37.216Z,12.93
2023-01-06T19:35:39.394Z,12.94
2023-01-06T19:38:43.050Z,12.93
2023-01-06T19:41:45.305Z,12.89
2023-01-06T19:44:49.644Z,12.90
2023-01-06T19:47:51.821Z,12.93
2023-01-06T19:51:09.901Z,12.92
2023-01-06T19:54:12.952Z,12.93
2023-01-06T19:57:35.499Z,12.92
2023-01-06T20:00:48.733Z,12.92
2023-01-06T20:03:53.592Z,12.92
2023-01-06T20:06:57.836Z,12.91
2023-01-06T20:10:00.044Z,12.91
2023-01-06T20:13:02.140Z,12.92
2023-01-06T20:16:05.006Z,12.93
2023-01-06T20:19:07.205Z,12.92
2023-01-06T20:22:09.287Z,12.91
2023-01-06T20:25:11.547Z,12.91
2023-01-06T20:28:13.783Z,12.92
2023-01-06T20:31:16.391Z,12.93
2023-01-06T20:34:18.596Z,12.91
2023-01-06T20:37:20.766Z,12.93
2023-01-06T20:40:23.002Z,12.92
2023-01-06T20:43:25.171Z,12.94
2023-01-06T20:46:27.400Z,12.91
2023-01-06T20:49:29.589Z,12.89
2023-01-06T20:52:31.681Z,12.93
2023-01-06T20:55:33.845Z,12.90
2023-01-06T20:58:36.083Z,12.94
2023-01-06T21:01:38.383Z,12.91
2023-01-06T21:04:40.664Z,12.93
2023-01-06T21:07:42.866Z,12.91
2023-01-06T21:10:45.077Z,12.92
2023-01-06T21:13:47.366Z,12.92
2023-01-06T21:16:49.975Z,12.91
2023-01-06T21:19:52.225Z,12.92
2023-01-06T21:22:54.343Z,12.92
2023-01-06T21:25:56.591Z,12.92
2023-01-06T21:28:58.804Z,12.92
2023-01-06T21:32:01.030Z,12.91
2023-01-06T21:35:03.340Z,12.90
2023-01-06T21:38:05.648Z,12.83
2023-01-06T21:41:26.322Z,12.91
2023-01-06T21:44:28.425Z,12.91
2023-01-06T21:47:30.611Z,12.89
2023-01-06T21:50:36.794Z,12.91
2023-01-06T21:53:39.449Z,12.91
2023-01-06T21:56:41.663Z,12.90
2023-01-06T21:59:44.160Z,12.90
2023-01-06T22:02:46.897Z,12.90
2023-01-06T22:05:49.227Z,12.90
2023-01-06T22:08:53.342Z,12.89
2023-01-06T22:11:55.954Z,12.89
2023-01-06T22:14:58.139Z,12.88
2023-01-06T22:18:00.645Z,12.89
2023-01-06T22:21:03.126Z,12.89
2023-01-06T22:24:06.842Z,12.90
2023-01-06T22:27:09.908Z,12.89
2023-01-06T22:30:12.214Z,12.90
2023-01-06T22:33:15.510Z,12.90
2023-01-06T22:36:17.937Z,12.90
2023-01-06T22:39:20.124Z,12.89
2023-01-06T22:42:22.840Z,12.89
2023-01-06T22:45:25.116Z,12.89
2023-01-06T22:48:27.377Z,12.88
2023-01-06T22:51:29.606Z,12.88
2023-01-06T22:54:31.914Z,12.87
2023-01-06T22:57:34.101Z,12.88
2023-01-06T23:00:36.273Z,12.86
2023-01-06T23:03:38.472Z,12.88
2023-01-06T23:06:40.660Z,12.88
2023-01-06T23:09:42.849Z,12.88
2023-01-06T23:12:45.118Z,12.88
2023-01-06T23:15:47.293Z,12.87
2023-01-06T23:18:49.946Z,12.88
2023-01-06T23:21:52.339Z,12.88
2023-01-06T23:24:54.464Z,12.85
2023-01-06T23:27:56.658Z,12.87
2023-01-06T23:31:13.680Z,12.87
2023-01-06T23:34:18.104Z,12.86
2023-01-06T23:37:20.345Z,12.86
2023-01-06T23:40:22.443Z,12.84
2023-01-06T23:43:26.784Z,12.85
2023-01-06T23:46:34.502Z,12.84
2023-01-06T23:49:36.670Z,12.84
2023-01-06T23:52:38.844Z,12.83
2023-01-06T23:55:40.969Z,12.83
2023-01-06T23:58:45.455Z,12.82
